createdAt,value
2019-01-26T00:00:40.040Z,-1.70
2019-01-26T00:03:21.821Z,-1.60
2019-01-26T00:06:03.528Z,-1.70
2019-01-26T00:08:46.147Z,-1.60
2019-01-26T00:11:28.635Z,-1.70
2019-01-26T00:14:11.206Z,-1.70
2019-01-26T00:16:53.732Z,-1.60
2019-01-26T00:19:36.941Z,-1.50
2019-01-26T00:22:17.668Z,-1.50
2019-01-26T00:28:13.789Z,-1.60
2019-01-26T00:30:56.189Z,-1.50
2019-01-26T00:33:43.108Z,-1.50
2019-01-26T00:36:23.280Z,-1.50
2019-01-26T00:39:06.171Z,-1.50
2019-01-26T00:41:48.425Z,-1.50
2019-01-26T00:44:31.277Z,-1.40
2019-01-26T00:47:14.327Z,-1.50
2019-01-26T00:49:56.292Z,-1.50
2019-01-26T00:52:38.570Z,-1.50
2019-01-26T00:55:21.024Z,-1.50
2019-01-26T00:58:02.820Z,-1.40
2019-01-26T01:00:44.661Z,-1.30
2019-01-26T01:03:26.413Z,-1.30
2019-01-26T01:06:08.448Z,-1.30
2019-01-26T01:08:50.193Z,-1.30
2019-01-26T01:11:32.618Z,-1.40
2019-01-26T01:14:14.877Z,-1.30
2019-01-26T01:16:57.566Z,-1.30
2019-01-26T01:19:39.713Z,-1.20
2019-01-26T01:22:22.156Z,-1.30
2019-01-26T01:25:04.320Z,-1.20
2019-01-26T01:27:46.033Z,-1.10
2019-01-26T01:30:26.476Z,-1.10
2019-01-26T01:33:16.101Z,-1.00
2019-01-26T01:35:57.891Z,-1.10
2019-01-26T01:38:40.321Z,-1.10
2019-01-26T01:41:22.931Z,-1.10
2019-01-26T01:44:05.588Z,-1.10
2019-01-26T01:46:48.240Z,-1.10
2019-01-26T01:49:30.725Z,-1.10
2019-01-26T01:52:13.089Z,-1.10
2019-01-26T01:54:55.825Z,-1.10
2019-01-26T01:57:37.876Z,-1.10
2019-01-26T02:00:20.500Z,-1.10
2019-01-26T02:03:02.270Z,-1.20
2019-01-26T02:05:45.312Z,-1.20
2019-01-26T02:08:27.685Z,-1.10
2019-01-26T02:11:10.394Z,-1.10
2019-01-26T02:13:52.360Z,-1.10
2019-01-26T02:16:34.345Z,-1.10
2019-01-26T02:19:17.076Z,-1.10
2019-01-26T02:21:59.241Z,-1.10
2019-01-26T02:24:41.813Z,-1.10
2019-01-26T02:27:23.788Z,-1.10
2019-01-26T02:30:05.242Z,-1.10
2019-01-26T02:32:48.636Z,-1.10
2019-01-26T02:35:30.408Z,-1.10
2019-01-26T02:38:11.146Z,-1.00
2019-01-26T02:44:07.037Z,-1.20
2019-01-26T02:46:47.473Z,-1.30
2019-01-26T02:49:37.208Z,-1.20
2019-01-26T02:52:19.141Z,-1.30
2019-01-26T02:55:01.102Z,-1.40
2019-01-26T02:57:44.037Z,-1.30
2019-01-26T03:00:26.458Z,-1.40
2019-01-26T03:03:08.777Z,-1.20
2019-01-26T03:05:51.797Z,-1.30
2019-01-26T03:08:33.547Z,-1.30
2019-01-26T03:11:16.077Z,-1.40
2019-01-26T03:13:58.563Z,-1.40
2019-01-26T03:16:40.545Z,-1.40
2019-01-26T03:19:22.678Z,-1.40
2019-01-26T03:22:04.633Z,-1.30
2019-01-26T03:24:47.252Z,-1.30
2019-01-26T03:27:29.425Z,-1.40
2019-01-26T03:30:11.512Z,-1.40
2019-01-26T03:32:53.757Z,-1.40
2019-01-26T03:35:35.498Z,-1.30
2019-01-26T03:38:17.977Z,-1.20
2019-01-26T03:40:59.999Z,-1.20
2019-01-26T03:43:42.510Z,-1.40
2019-01-26T03:46:24.497Z,-1.40
2019-01-26T03:49:06.492Z,-1.30
2019-01-26T03:51:49.070Z,-1.30
2019-01-26T03:54:31.361Z,-1.30
2019-01-26T03:57:13.933Z,-1.30
2019-01-26T03:59:56.645Z,-1.30
2019-01-26T04:02:39.056Z,-1.20
2019-01-26T04:05:21.162Z,-1.30
2019-01-26T04:08:04.077Z,-1.30
2019-01-26T04:10:46.640Z,-1.20
2019-01-26T04:13:28.672Z,-1.20
2019-01-26T04:16:11.118Z,-1.20
2019-01-26T04:18:53.817Z,-1.20
2019-01-26T04:21:36.124Z,-1.10
2019-01-26T04:24:18.567Z,-1.10
2019-01-26T04:27:00.365Z,-1.10
2019-01-26T04:29:42.946Z,-1.00
2019-01-26T04:32:25.151Z,-1.20
2019-01-26T04:35:15.082Z,-1.10
2019-01-26T04:37:57.378Z,-1.10
2019-01-26T04:40:39.922Z,-1.10
2019-01-26T04:43:22.825Z,-1.10
2019-01-26T04:46:05.186Z,-1.10
2019-01-26T04:48:47.084Z,-1.10
2019-01-26T04:51:28.777Z,-1.00
2019-01-26T04:54:10.613Z,-1.00
2019-01-26T04:56:53.145Z,-1.00
2019-01-26T04:59:33.861Z,-1.00
2019-01-26T05:02:23.184Z,-1.00
2019-01-26T05:05:05.361Z,-0.90
2019-01-26T05:07:47.116Z,-0.90
2019-01-26T05:10:29.493Z,-0.90
2019-01-26T05:13:12.332Z,-0.90
2019-01-26T05:15:54.979Z,-1.00
2019-01-26T05:18:37.814Z,-0.90
2019-01-26T05:21:19.545Z,-0.90
2019-01-26T05:23:59.960Z,-0.80
2019-01-26T05:29:50.638Z,-0.80
2019-01-26T05:32:33.317Z,-0.80
2019-01-26T05:35:16.093Z,-0.70
2019-01-26T05:37:58.477Z,-0.70
2019-01-26T05:40:40.674Z,-0.70
2019-01-26T05:43:22.442Z,-0.70
2019-01-26T05:46:04.257Z,-0.60
2019-01-26T05:48:47.177Z,-0.50
2019-01-26T05:51:28.945Z,-0.50
2019-01-26T05:54:11.281Z,-0.50
2019-01-26T05:56:53.085Z,-0.50
2019-01-26T05:59:34.943Z,-0.50
2019-01-26T06:02:16.882Z,-0.40
2019-01-26T06:04:59.296Z,-0.50
2019-01-26T06:07:39.793Z,-0.50
2019-01-26T06:10:29.494Z,-0.40
2019-01-26T06:13:11.457Z,-0.40
2019-01-26T06:15:53.517Z,-0.30
2019-01-26T06:18:36.409Z,-0.30
2019-01-26T06:21:18.485Z,-0.30
2019-01-26T06:24:00.592Z,-0.20
2019-01-26T06:26:42.864Z,-0.20
2019-01-26T06:29:25.474Z,-0.20
2019-01-26T06:32:07.773Z,-0.20
2019-01-26T06:34:49.808Z,-0.20
2019-01-26T06:37:31.937Z,-0.20
2019-01-26T06:40:14.383Z,-0.10
2019-01-26T06:42:56.410Z,-0.10
2019-01-26T06:45:39.064Z,-0.20
2019-01-26T06:48:21.553Z,-0.10
2019-01-26T06:51:04.420Z,-0.10
2019-01-26T06:53:46.926Z,-0.10
2019-01-26T06:56:29.462Z,-0.10
2019-01-26T06:59:11.277Z,-0.20
2019-01-26T07:01:54.217Z,-0.10
2019-01-26T07:04:42.448Z,-0.30
2019-01-26T07:07:24.631Z,-0.20
2019-01-26T07:10:07.422Z,-0.20
2019-01-26T07:12:49.425Z,-0.10
2019-01-26T07:15:31.810Z,-0.10
2019-01-26T07:18:14.688Z,-0.10
2019-01-26T07:20:57.192Z,-0.10
2019-01-26T07:23:39.844Z,-0.20
2019-01-26T07:26:22.353Z,-0.20
2019-01-26T07:29:04.668Z,-0.20
2019-01-26T07:31:46.980Z,0.00
2019-01-26T07:34:29.113Z,-0.10
2019-01-26T07:37:11.321Z,0.00
2019-01-26T07:39:53.817Z,0.10
2019-01-26T07:42:36.345Z,0.10
2019-01-26T07:45:18.183Z,0.00
2019-01-26T07:48:00.287Z,0.00
2019-01-26T07:50:43.100Z,0.00
2019-01-26T07:53:25.540Z,0.00
2019-01-26T07:56:08.081Z,0.10
2019-01-26T07:58:49.809Z,0.20
2019-01-26T08:01:31.884Z,0.20
2019-01-26T08:04:14.491Z,0.20
2019-01-26T08:06:56.177Z,0.20
2019-01-26T08:09:45.535Z,0.20
2019-01-26T08:12:27.849Z,0.30
2019-01-26T08:15:10.340Z,0.30
2019-01-26T08:17:52.924Z,0.30
2019-01-26T08:20:33.313Z,0.40
2019-01-26T08:23:22.624Z,0.50
2019-01-26T08:26:04.657Z,0.50
2019-01-26T08:28:47.200Z,0.60
2019-01-26T08:31:29.461Z,0.70
2019-01-26T08:34:11.426Z,0.70
2019-01-26T08:36:54.043Z,0.70
2019-01-26T08:39:36.849Z,0.70
2019-01-26T08:42:19.500Z,0.70
2019-01-26T08:45:01.301Z,0.80
2019-01-26T08:47:43.328Z,0.90
2019-01-26T08:50:25.226Z,0.90
2019-01-26T08:53:07.172Z,0.90
2019-01-26T08:55:49.252Z,0.90
2019-01-26T08:58:31.485Z,1.00
2019-01-26T09:01:13.854Z,1.00
2019-01-26T09:07:28.413Z,1.10
2019-01-26T09:10:10.198Z,1.20
2019-01-26T09:12:51.932Z,1.10
2019-01-26T09:15:34.067Z,1.20
2019-01-26T09:18:16.377Z,1.20
2019-01-26T09:20:58.132Z,1.20
2019-01-26T09:23:40.585Z,1.30
2019-01-26T09:26:22.832Z,1.40
2019-01-26T09:29:05.269Z,1.50
2019-01-26T09:31:47.056Z,1.50
2019-01-26T09:34:29.566Z,1.40
2019-01-26T09:37:11.907Z,1.50
2019-01-26T09:39:52.593Z,1.50
2019-01-26T09:42:42.228Z,1.50
2019-01-26T09:45:23.952Z,1.60
2019-01-26T09:48:06.428Z,1.60
2019-01-26T09:50:49.015Z,1.60
2019-01-26T09:53:31.521Z,1.60
2019-01-26T09:56:13.361Z,1.60
2019-01-26T09:58:55.781Z,1.70
2019-01-26T10:01:37.921Z,1.70
2019-01-26T10:04:20.817Z,1.70
2019-01-26T10:07:02.517Z,1.60
2019-01-26T10:09:44.448Z,1.70
2019-01-26T10:12:26.998Z,1.90
2019-01-26T10:15:09.502Z,1.80
2019-01-26T10:17:51.835Z,1.80
2019-01-26T10:20:34.347Z,1.80
2019-01-26T10:23:16.401Z,1.80
2019-01-26T10:25:59.048Z,1.90
2019-01-26T10:28:41.632Z,2.00
2019-01-26T10:31:23.940Z,2.10
2019-01-26T10:34:06.399Z,2.00
2019-01-26T10:39:49.273Z,2.10
2019-01-26T10:42:33.599Z,2.20
2019-01-26T10:45:15.737Z,2.30
2019-01-26T10:47:57.653Z,2.30
2019-01-26T10:50:40.485Z,2.30
2019-01-26T10:53:23.037Z,2.30
2019-01-26T10:56:05.477Z,2.30
2019-01-26T10:58:48.081Z,2.30
2019-01-26T11:01:30.698Z,2.40
2019-01-26T11:04:11.347Z,2.50
2019-01-26T11:10:08.105Z,2.50
2019-01-26T11:12:50.745Z,2.50
2019-01-26T11:15:31.141Z,2.60
2019-01-26T11:18:20.672Z,2.70
2019-01-26T11:21:02.677Z,2.90
2019-01-26T11:23:45.549Z,2.80
2019-01-26T11:26:15.658Z,2.80
2019-01-26T11:28:45.882Z,2.80
2019-01-26T11:31:16.529Z,2.70
2019-01-26T11:33:46.945Z,2.80
2019-01-26T11:36:17.681Z,3.00
2019-01-26T11:38:47.721Z,3.00
2019-01-26T11:41:18.230Z,3.00
2019-01-26T11:43:48.319Z,3.10
2019-01-26T11:46:37.487Z,3.20
2019-01-26T11:49:07.808Z,3.10
2019-01-26T11:51:56.961Z,3.10
2019-01-26T11:54:27.648Z,3.20
2019-01-26T11:57:04.617Z,3.10
2019-01-26T11:59:35.073Z,3.20
2019-01-26T12:02:10.142Z,3.30
2019-01-26T12:05:01.916Z,3.30
2019-01-26T12:07:33.973Z,3.40
2019-01-26T12:10:05.192Z,3.30
2019-01-26T12:12:35.842Z,3.30
2019-01-26T12:15:08.811Z,3.30
2019-01-26T12:17:39.192Z,3.40
2019-01-26T12:20:12.352Z,3.40
2019-01-26T12:22:42.708Z,3.30
2019-01-26T12:25:12.807Z,3.40
2019-01-26T12:27:44.285Z,3.30
2019-01-26T12:30:14.771Z,3.40
2019-01-26T12:32:45.093Z,3.40
2019-01-26T12:35:15.349Z,3.30
2019-01-26T12:37:45.659Z,3.20
2019-01-26T12:40:15.780Z,3.20
2019-01-26T12:42:45.859Z,3.10
2019-01-26T12:45:17.882Z,3.20
2019-01-26T12:47:47.969Z,3.20
2019-01-26T12:50:18.558Z,3.30
2019-01-26T12:52:48.928Z,3.30
2019-01-26T12:55:19.385Z,3.50
2019-01-26T12:57:49.561Z,3.50
2019-01-26T13:00:20.476Z,3.50
2019-01-26T13:02:50.937Z,3.50
2019-01-26T13:05:21.871Z,3.60
2019-01-26T13:07:51.980Z,3.60
2019-01-26T13:10:26.362Z,3.70
2019-01-26T13:12:56.780Z,3.70
2019-01-26T13:15:27.573Z,3.70
2019-01-26T13:17:57.943Z,3.60
2019-01-26T13:20:28.774Z,3.50
2019-01-26T13:22:58.901Z,3.60
2019-01-26T13:25:28.934Z,3.50
2019-01-26T13:27:59.105Z,3.50
2019-01-26T13:30:29.515Z,3.40
2019-01-26T13:32:59.547Z,3.30
2019-01-26T13:35:29.957Z,3.40
2019-01-26T13:38:00.389Z,3.30
2019-01-26T13:40:30.567Z,3.40
2019-01-26T13:43:00.600Z,3.40
2019-01-26T13:45:31.166Z,3.40
2019-01-26T13:48:01.587Z,3.30
2019-01-26T13:50:31.905Z,3.30
2019-01-26T13:53:02.505Z,3.30
2019-01-26T13:55:32.592Z,3.30
2019-01-26T13:58:03.065Z,3.30
2019-01-26T14:00:33.248Z,3.30
2019-01-26T14:03:04.205Z,3.20
2019-01-26T14:05:34.449Z,3.30
2019-01-26T14:08:05.209Z,3.30
2019-01-26T14:10:35.705Z,3.20
2019-01-26T14:13:06.324Z,3.20
2019-01-26T14:15:37.197Z,3.20
2019-01-26T14:18:07.732Z,3.20
2019-01-26T14:20:38.356Z,3.20
2019-01-26T14:23:08.401Z,3.30
2019-01-26T14:25:38.467Z,3.30
2019-01-26T14:28:08.856Z,3.40
2019-01-26T14:30:41.568Z,3.40
2019-01-26T14:33:12.134Z,3.40
2019-01-26T14:35:42.283Z,3.50
2019-01-26T14:38:12.621Z,3.50
2019-01-26T14:40:42.801Z,3.50
2019-01-26T14:43:12.892Z,3.50
2019-01-26T14:45:42.917Z,3.40
2019-01-26T14:48:13.361Z,3.50
2019-01-26T14:50:43.443Z,3.50
2019-01-26T14:53:13.552Z,3.50
2019-01-26T14:55:43.918Z,3.40
2019-01-26T14:58:14.349Z,3.40
2019-01-26T15:00:44.695Z,3.40
2019-01-26T15:03:14.725Z,3.40
2019-01-26T15:05:44.859Z,3.40
2019-01-26T15:08:15.520Z,3.30
2019-01-26T15:10:45.585Z,3.30
2019-01-26T15:13:15.943Z,3.30
2019-01-26T15:15:45.976Z,3.30
2019-01-26T15:18:16.603Z,3.20
2019-01-26T15:20:47.009Z,3.20
2019-01-26T15:23:17.313Z,3.10
2019-01-26T15:25:47.706Z,3.10
2019-01-26T15:28:20.188Z,3.20
2019-01-26T15:30:50.605Z,3.10
2019-01-26T15:33:21.036Z,3.10
2019-01-26T15:35:51.077Z,3.10
2019-01-26T15:38:21.583Z,3.10
2019-01-26T15:40:52.113Z,3.10
2019-01-26T15:43:22.509Z,3.00
2019-01-26T15:45:52.784Z,3.10
2019-01-26T15:48:23.118Z,3.00
2019-01-26T15:50:53.159Z,3.00
2019-01-26T15:53:23.668Z,3.00
2019-01-26T15:55:53.704Z,3.00
2019-01-26T15:58:24.071Z,2.90
2019-01-26T16:00:54.103Z,2.80
2019-01-26T16:03:24.409Z,2.80
2019-01-26T16:05:55.969Z,2.90
2019-01-26T16:08:26.401Z,2.90
2019-01-26T16:10:56.760Z,2.90
2019-01-26T16:13:28.311Z,2.80
2019-01-26T16:15:58.574Z,2.80
2019-01-26T16:18:28.897Z,2.80
2019-01-26T16:20:58.974Z,2.80
2019-01-26T16:23:29.064Z,2.80
2019-01-26T16:25:59.387Z,2.80
2019-01-26T16:28:29.506Z,2.90
2019-01-26T16:30:59.731Z,2.90
2019-01-26T16:33:29.757Z,3.00
2019-01-26T16:36:00.296Z,3.00
2019-01-26T16:38:30.535Z,2.90
2019-01-26T16:41:00.609Z,2.90
2019-01-26T16:43:30.875Z,2.90
2019-01-26T16:46:00.957Z,2.90
2019-01-26T16:48:31.057Z,2.80
2019-01-26T16:51:01.132Z,2.80
2019-01-26T16:53:31.389Z,2.60
2019-01-26T16:56:02.164Z,2.60
2019-01-26T16:58:32.222Z,2.60
2019-01-26T17:01:02.960Z,2.60
2019-01-26T17:03:32.983Z,2.70
2019-01-26T17:06:03.389Z,2.70
2019-01-26T17:08:33.717Z,2.70
2019-01-26T17:11:04.172Z,2.70
2019-01-26T17:13:34.492Z,2.60
2019-01-26T17:16:04.656Z,2.60
2019-01-26T17:18:35.288Z,2.60
2019-01-26T17:21:05.600Z,2.60
2019-01-26T17:23:35.916Z,2.60
2019-01-26T17:26:06.191Z,2.60
2019-01-26T17:28:36.876Z,2.60
2019-01-26T17:31:06.900Z,2.60
2019-01-26T17:33:37.321Z,2.50
2019-01-26T17:36:07.353Z,2.50
2019-01-26T17:38:37.749Z,2.50
2019-01-26T17:41:08.000Z,2.50
2019-01-26T17:43:38.410Z,2.50
2019-01-26T17:46:08.906Z,2.50
2019-01-26T17:48:39.263Z,2.50
2019-01-26T17:51:09.335Z,2.50
2019-01-26T17:53:40.394Z,2.60
2019-01-26T17:56:10.471Z,2.50
2019-01-26T17:58:40.968Z,2.60
2019-01-26T18:01:13.879Z,2.50
2019-01-26T18:03:44.224Z,2.50
2019-01-26T18:06:14.714Z,2.50
2019-01-26T18:08:44.988Z,2.50
2019-01-26T18:11:15.568Z,2.60
2019-01-26T18:13:45.808Z,2.60
2019-01-26T18:16:17.087Z,2.60
2019-01-26T18:18:47.358Z,2.50
2019-01-26T18:21:17.675Z,2.40
2019-01-26T18:23:47.706Z,2.40
2019-01-26T18:26:17.792Z,2.40
2019-01-26T18:28:47.974Z,2.40
2019-01-26T18:31:18.365Z,2.40
2019-01-26T18:33:48.748Z,2.40
2019-01-26T18:36:18.839Z,2.40
2019-01-26T18:38:49.341Z,2.50
2019-01-26T18:41:20.888Z,2.50
2019-01-26T18:43:51.208Z,2.50
2019-01-26T18:46:21.645Z,2.50
2019-01-26T18:48:52.059Z,2.50
2019-01-26T18:51:22.204Z,2.50
2019-01-26T18:53:52.835Z,2.50
2019-01-26T18:56:23.381Z,2.50
2019-01-26T18:58:53.408Z,2.50
2019-01-26T19:01:24.225Z,2.60
2019-01-26T19:04:27.341Z,2.60
2019-01-26T19:06:57.937Z,2.50
2019-01-26T19:09:28.295Z,2.50
2019-01-26T19:11:58.980Z,2.40
2019-01-26T19:14:30.228Z,2.40
2019-01-26T19:17:00.368Z,2.50
2019-01-26T19:19:31.249Z,2.50
2019-01-26T19:22:01.881Z,2.50
2019-01-26T19:24:32.085Z,2.50
2019-01-26T19:27:02.109Z,2.50
2019-01-26T19:29:32.640Z,2.50
2019-01-26T19:32:02.821Z,2.50
2019-01-26T19:34:33.327Z,2.50
2019-01-26T19:37:09.280Z,2.50
2019-01-26T19:39:36.221Z,2.50
2019-01-26T19:42:06.947Z,2.50
2019-01-26T19:44:37.992Z,2.40
2019-01-26T19:47:08.157Z,2.50
2019-01-26T19:49:38.455Z,2.50
2019-01-26T19:52:08.621Z,2.50
2019-01-26T19:54:38.697Z,2.50
2019-01-26T19:57:09.160Z,2.50
2019-01-26T19:59:39.227Z,2.50
2019-01-26T20:02:09.422Z,2.40
2019-01-26T20:04:39.886Z,2.40
2019-01-26T20:07:11.640Z,2.50
2019-01-26T20:09:42.379Z,2.50
2019-01-26T20:12:12.605Z,2.40
2019-01-26T20:14:42.740Z,2.40
2019-01-26T20:17:12.793Z,2.40
2019-01-26T20:19:43.464Z,2.50
2019-01-26T20:22:13.619Z,2.40
2019-01-26T20:24:43.975Z,2.50
2019-01-26T20:27:14.397Z,2.40
2019-01-26T20:29:44.496Z,2.50
2019-01-26T20:32:14.990Z,2.50
2019-01-26T20:34:45.466Z,2.40
2019-01-26T20:37:15.769Z,2.40
2019-01-26T20:39:46.345Z,2.50
2019-01-26T20:42:17.450Z,2.40
2019-01-26T20:44:47.476Z,2.50
2019-01-26T20:47:17.787Z,2.50
2019-01-26T20:49:48.122Z,2.60
2019-01-26T20:52:18.217Z,2.60
2019-01-26T20:54:48.930Z,2.50
2019-01-26T20:57:19.012Z,2.50
2019-01-26T20:59:49.381Z,2.60
2019-01-26T21:02:20.396Z,2.50
2019-01-26T21:04:51.316Z,2.60
2019-01-26T21:07:21.607Z,2.60
2019-01-26T21:09:51.925Z,2.50
2019-01-26T21:12:22.009Z,2.60
2019-01-26T21:14:52.548Z,2.60
2019-01-26T21:17:23.523Z,2.60
2019-01-26T21:19:53.820Z,2.60
2019-01-26T21:22:24.129Z,2.50
2019-01-26T21:24:54.433Z,2.50
2019-01-26T21:27:24.893Z,2.50
2019-01-26T21:29:54.924Z,2.60
2019-01-26T21:32:25.432Z,2.60
2019-01-26T21:34:56.032Z,2.60
2019-01-26T21:37:26.103Z,2.70
2019-01-26T21:39:56.533Z,2.80
2019-01-26T21:42:26.697Z,2.80
2019-01-26T21:44:57.383Z,2.70
2019-01-26T21:47:27.787Z,2.70
2019-01-26T21:49:58.519Z,2.70
2019-01-26T21:52:30.379Z,2.70
2019-01-26T21:55:00.709Z,2.70
2019-01-26T21:57:31.316Z,2.80
2019-01-26T22:00:01.797Z,2.80
2019-01-26T22:02:32.850Z,2.80
2019-01-26T22:05:03.168Z,2.70
2019-01-26T22:07:33.577Z,2.70
2019-01-26T22:10:04.949Z,2.70
2019-01-26T22:12:35.184Z,2.70
2019-01-26T22:15:06.627Z,2.80
2019-01-26T22:17:37.363Z,2.90
2019-01-26T22:20:10.144Z,2.90
2019-01-26T22:22:41.005Z,2.80
2019-01-26T22:25:12.912Z,2.80
2019-01-26T22:27:44.241Z,2.80
2019-01-26T22:30:20.097Z,2.90
2019-01-26T22:32:50.531Z,2.90
2019-01-26T22:35:21.304Z,3.00
2019-01-26T22:37:51.706Z,3.00
2019-01-26T22:40:32.883Z,3.00
2019-01-26T22:43:04.769Z,3.00
2019-01-26T22:45:35.272Z,3.10
2019-01-26T22:48:05.984Z,3.20
2019-01-26T22:50:36.337Z,3.10
2019-01-26T22:53:06.960Z,3.10
2019-01-26T22:55:37.472Z,3.10
2019-01-26T22:58:07.564Z,3.20
2019-01-26T23:00:52.261Z,3.20
2019-01-26T23:03:28.421Z,3.20
2019-01-26T23:06:49.620Z,3.20
2019-01-26T23:09:27.316Z,3.20
2019-01-26T23:12:15.916Z,3.20
2019-01-26T23:15:35.399Z,3.20
2019-01-26T23:18:30.965Z,3.30
2019-01-26T23:21:19.548Z,3.40
2019-01-26T23:24:13.459Z,3.50
2019-01-26T23:27:07.196Z,3.50
2019-01-26T23:29:46.492Z,3.60
2019-01-26T23:32:16.766Z,3.50
2019-01-26T23:34:47.361Z,3.60
2019-01-26T23:37:17.383Z,3.70
2019-01-26T23:39:47.476Z,3.70
2019-01-26T23:42:18.693Z,3.70
2019-01-26T23:44:49.001Z,3.70
2019-01-26T23:47:19.020Z,3.80
2019-01-26T23:49:49.622Z,3.70
2019-01-26T23:52:20.963Z,3.90
2019-01-26T23:54:51.696Z,3.90
2019-01-26T23:57:21.743Z,3.90
2019-01-26T23:59:51.871Z,3.80
